Terminal Aerodrome Forecast
Issued by NWS

Home | Current Version | Previous Version | Graphics & Text | Print | Product List | Glossary On
Versions: 1 2 3 4 5 6 7 8 9 10 11 12 13 14 15 16 17 18 19
000
FTUS43 KABR 221500 AAA
TAFATY
TAF AMD
KATY 221544Z 2216/2312 18014G25KT P6SM BKN200
     FM221800 18015KT P6SM BKN100
      TEMPO 2219/2223 P6SM -SHRA BKN050
     FM230400 VRB05KT P6SM SKC=

USA.gov is the U.S. government's official web portal to all federal, state and local government web resources and services.